sensor_id;sensor_type;location;lat;lon;timestamp;pressure;altitude;pressure_sealevel;temperature;humidity
33155;BME280;19511;42.682;23.332;2022-09-17T00:00:12;94373.22;;;16.31;100.00
33155;BME280;19511;42.682;23.332;2022-09-17T00:02:37;94387.34;;;16.37;100.00
33155;BME280;19511;42.682;23.332;2022-09-17T00:05:03;94380.69;;;16.34;100.00
33155;BME280;19511;42.682;23.332;2022-09-17T00:07:29;94364.84;;;16.31;100.00
33155;BME280;19511;42.682;23.332;2022-09-17T00:09:54;94386.69;;;16.51;100.00
33155;BME280;19511;42.682;23.332;2022-09-17T00:12:20;94382.19;;;16.54;100.00
33155;BME280;19511;42.682;23.332;2022-09-17T00:14:45;94363.09;;;16.61;100.00
33155;BME280;19511;42.682;23.332;2022-09-17T00:17:11;94345.56;;;16.61;100.00
33155;BME280;19511;42.682;23.332;2022-09-17T00:19:36;94337.66;;;16.59;100.00
33155;BME280;19511;42.682;23.332;2022-09-17T00:22:01;94346.94;;;16.65;100.00
33155;BME280;19511;42.682;23.332;2022-09-17T00:24:28;94333.78;;;16.66;100.00
33155;BME280;19511;42.682;23.332;2022-09-17T00:26:54;94336.56;;;16.66;100.00
33155;BME280;19511;42.682;23.332;2022-09-17T00:29:19;94356.53;;;16.74;100.00
33155;BME280;19511;42.682;23.332;2022-09-17T00:31:44;94288.41;;;16.38;100.00
33155;BME280;19511;42.682;23.332;2022-09-17T00:34:10;94348.75;;;16.78;100.00
33155;BME280;19511;42.682;23.332;2022-09-17T00:36:37;94352.94;;;16.83;100.00
33155;BME280;19511;42.682;23.332;2022-09-17T00:39:04;94353.53;;;16.87;100.00
33155;BME280;19511;42.682;23.332;2022-09-17T00:41:31;94360.56;;;16.73;100.00
33155;BME280;19511;42.682;23.332;2022-09-17T00:43:59;94300.34;;;16.29;100.00
33155;BME280;19511;42.682;23.332;2022-09-17T00:46:37;94372.97;;;16.72;100.00
33155;BME280;19511;42.682;23.332;2022-09-17T00:49:16;94371.13;;;16.69;100.00
33155;BME280;19511;42.682;23.332;2022-09-17T00:51:52;94349.31;;;16.48;100.00
33155;BME280;19511;42.682;23.332;2022-09-17T00:54:19;94370.84;;;16.48;100.00
33155;BME280;19511;42.682;23.332;2022-09-17T00:56:45;94325.06;;;16.03;100.00
33155;BME280;19511;42.682;23.332;2022-09-17T00:59:13;94358.81;;;16.42;100.00
33155;BME280;19511;42.682;23.332;2022-09-17T01:01:39;94323.66;;;16.07;100.00
33155;BME280;19511;42.682;23.332;2022-09-17T01:04:04;94390.09;;;16.46;100.00
33155;BME280;19511;42.682;23.332;2022-09-17T01:06:40;94239.13;;;15.45;100.00
33155;BME280;19511;42.682;23.332;2022-09-17T01:09:40;94387.00;;;16.44;100.00
33155;BME280;19511;42.682;23.332;2022-09-17T01:12:39;94374.47;;;16.39;100.00
33155;BME280;19511;42.682;23.332;2022-09-17T01:26:29;94352.53;;;16.65;100.00
33155;BME280;19511;42.682;23.332;2022-09-17T01:34:29;94363.69;;;16.65;100.00
33155;BME280;19511;42.682;23.332;2022-09-17T01:37:11;94347.25;;;16.68;100.00
33155;BME280;19511;42.682;23.332;2022-09-17T01:39:49;94349.72;;;16.65;100.00
33155;BME280;19511;42.682;23.332;2022-09-17T01:45:03;94330.53;;;16.58;100.00
33155;BME280;19511;42.682;23.332;2022-09-17T01:47:33;94329.91;;;16.54;100.00
33155;BME280;19511;42.682;23.332;2022-09-17T01:50:08;94299.06;;;16.48;100.00
33155;BME280;19511;42.682;23.332;2022-09-17T01:52:38;94300.13;;;16.60;100.00
33155;BME280;19511;42.682;23.332;2022-09-17T01:55:09;94343.22;;;16.59;100.00
33155;BME280;19511;42.682;23.332;2022-09-17T02:00:26;94354.88;;;16.67;100.00
33155;BME280;19511;42.682;23.332;2022-09-17T02:03:09;94342.31;;;16.62;100.00
33155;BME280;19511;42.682;23.332;2022-09-17T02:05:44;94328.03;;;16.70;100.00
33155;BME280;19511;42.682;23.332;2022-09-17T02:10:51;94310.22;;;16.58;100.00
33155;BME280;19511;42.682;23.332;2022-09-17T02:13:29;94292.09;;;16.53;100.00
33155;BME280;19511;42.682;23.332;2022-09-17T02:16:03;94256.00;;;16.40;100.00
33155;BME280;19511;42.682;23.332;2022-09-17T02:24:23;94246.97;;;16.55;100.00
33155;BME280;19511;42.682;23.332;2022-09-17T02:26:56;94205.03;;;16.30;100.00
33155;BME280;19511;42.682;23.332;2022-09-17T02:29:30;94165.34;;;16.26;100.00
33155;BME280;19511;42.682;23.332;2022-09-17T02:31:57;94211.75;;;16.57;100.00
33155;BME280;19511;42.682;23.332;2022-09-17T02:34:23;94235.09;;;16.69;100.00
33155;BME280;19511;42.682;23.332;2022-09-17T02:36:50;94209.75;;;16.48;100.00
33155;BME280;19511;42.682;23.332;2022-09-17T02:39:16;94239.34;;;16.55;100.00
33155;BME280;19511;42.682;23.332;2022-09-17T02:42:02;94262.91;;;16.54;100.00
33155;BME280;19511;42.682;23.332;2022-09-17T03:01:41;94227.00;;;16.38;100.00
33155;BME280;19511;42.682;23.332;2022-09-17T03:04:11;94201.72;;;16.41;100.00
33155;BME280;19511;42.682;23.332;2022-09-17T03:06:44;94182.34;;;16.38;100.00
33155;BME280;19511;42.682;23.332;2022-09-17T03:09:13;94197.53;;;16.46;100.00
33155;BME280;19511;42.682;23.332;2022-09-17T03:11:39;94195.84;;;16.39;100.00
33155;BME280;19511;42.682;23.332;2022-09-17T03:14:05;94213.03;;;16.47;100.00
33155;BME280;19511;42.682;23.332;2022-09-17T03:16:30;94218.22;;;16.63;100.00
33155;BME280;19511;42.682;23.332;2022-09-17T03:18:55;94208.97;;;16.48;100.00
33155;BME280;19511;42.682;23.332;2022-09-17T03:21:21;94205.91;;;16.46;100.00
33155;BME280;19511;42.682;23.332;2022-09-17T03:23:46;94194.44;;;16.44;100.00
33155;BME280;19511;42.682;23.332;2022-09-17T03:26:12;94197.22;;;16.44;100.00
33155;BME280;19511;42.682;23.332;2022-09-17T03:28:37;94161.69;;;16.20;100.00
33155;BME280;19511;42.682;23.332;2022-09-17T03:31:03;94187.94;;;16.38;100.00
33155;BME280;19511;42.682;23.332;2022-09-17T03:33:30;94147.28;;;16.12;100.00
33155;BME280;19511;42.682;23.332;2022-09-17T03:35:56;94181.16;;;16.29;100.00
33155;BME280;19511;42.682;23.332;2022-09-17T03:38:21;94192.63;;;16.31;100.00
33155;BME280;19511;42.682;23.332;2022-09-17T03:41:04;94189.59;;;16.20;100.00
33155;BME280;19511;42.682;23.332;2022-09-17T03:43:33;94187.50;;;16.39;100.00
33155;BME280;19511;42.682;23.332;2022-09-17T03:45:59;94202.78;;;16.44;100.00
33155;BME280;19511;42.682;23.332;2022-09-17T03:48:25;94161.34;;;16.52;100.00
33155;BME280;19511;42.682;23.332;2022-09-17T03:50:50;94151.81;;;16.43;100.00
33155;BME280;19511;42.682;23.332;2022-09-17T03:53:16;94183.22;;;16.53;100.00
33155;BME280;19511;42.682;23.332;2022-09-17T03:55:42;94174.00;;;16.62;100.00
33155;BME280;19511;42.682;23.332;2022-09-17T03:58:07;94162.09;;;16.61;100.00
33155;BME280;19511;42.682;23.332;2022-09-17T04:00:33;94179.44;;;16.65;100.00
33155;BME280;19511;42.682;23.332;2022-09-17T04:03:02;94178.13;;;16.76;100.00
33155;BME280;19511;42.682;23.332;2022-09-17T04:05:28;94131.47;;;16.43;100.00
33155;BME280;19511;42.682;23.332;2022-09-17T04:07:53;94195.59;;;16.86;100.00
33155;BME280;19511;42.682;23.332;2022-09-17T04:10:18;94173.59;;;16.54;100.00
33155;BME280;19511;42.682;23.332;2022-09-17T04:12:44;94194.63;;;16.64;100.00
33155;BME280;19511;42.682;23.332;2022-09-17T04:15:09;94147.94;;;16.41;100.00
33155;BME280;19511;42.682;23.332;2022-09-17T04:17:35;94237.06;;;16.78;100.00
33155;BME280;19511;42.682;23.332;2022-09-17T04:20:01;94194.63;;;16.64;100.00
33155;BME280;19511;42.682;23.332;2022-09-17T04:22:27;94193.78;;;16.49;100.00
33155;BME280;19511;42.682;23.332;2022-09-17T04:24:53;94277.03;;;16.93;100.00
33155;BME280;19511;42.682;23.332;2022-09-17T04:27:18;94230.63;;;16.62;100.00
33155;BME280;19511;42.682;23.332;2022-09-17T04:29:43;94281.06;;;16.92;100.00
33155;BME280;19511;42.682;23.332;2022-09-17T04:32:09;94287.28;;;16.96;100.00
33155;BME280;19511;42.682;23.332;2022-09-17T04:34:34;94283.88;;;16.92;100.00
33155;BME280;19511;42.682;23.332;2022-09-17T04:37:00;94304.03;;;16.96;100.00
33155;BME280;19511;42.682;23.332;2022-09-17T04:39:25;94265.69;;;16.63;100.00
33155;BME280;19511;42.682;23.332;2022-09-17T04:41:50;94282.69;;;16.75;100.00
33155;BME280;19511;42.682;23.332;2022-09-17T04:44:16;94277.44;;;16.68;100.00
33155;BME280;19511;42.682;23.332;2022-09-17T04:46:41;94334.78;;;16.96;100.00
33155;BME280;19511;42.682;23.332;2022-09-17T04:49:07;94344.22;;;16.99;100.00
33155;BME280;19511;42.682;23.332;2022-09-17T04:51:33;94282.72;;;16.65;100.00
33155;BME280;19511;42.682;23.332;2022-09-17T04:53:59;94355.69;;;17.01;100.00
33155;BME280;19511;42.682;23.332;2022-09-17T04:56:24;94305.84;;;16.57;100.00
33155;BME280;19511;42.682;23.332;2022-09-17T04:58:50;94366.84;;;17.01;100.00
33155;BME280;19511;42.682;23.332;2022-09-17T05:01:15;94357.06;;;17.06;100.00
33155;BME280;19511;42.682;23.332;2022-09-17T05:03:43;94372.00;;;17.03;100.00
33155;BME280;19511;42.682;23.332;2022-09-17T05:06:09;94364.09;;;16.92;100.00
33155;BME280;19511;42.682;23.332;2022-09-17T05:08:34;94358.06;;;16.84;100.00
33155;BME280;19511;42.682;23.332;2022-09-17T05:11:00;94336.84;;;16.68;100.00
33155;BME280;19511;42.682;23.332;2022-09-17T05:13:25;94341.78;;;16.73;100.00
33155;BME280;19511;42.682;23.332;2022-09-17T05:15:53;94341.19;;;16.69;100.00
33155;BME280;19511;42.682;23.332;2022-09-17T05:18:18;94331.13;;;16.62;100.00
33155;BME280;19511;42.682;23.332;2022-09-17T05:20:44;94339.00;;;16.73;100.00
33155;BME280;19511;42.682;23.332;2022-09-17T05:23:10;94322.72;;;16.72;100.00
33155;BME280;19511;42.682;23.332;2022-09-17T05:25:36;94304.25;;;16.74;100.00
33155;BME280;19511;42.682;23.332;2022-09-17T05:28:01;94292.50;;;16.70;100.00
33155;BME280;19511;42.682;23.332;2022-09-17T05:30:27;94294.31;;;16.73;100.00
33155;BME280;19511;42.682;23.332;2022-09-17T05:33:00;94295.72;;;16.78;100.00
33155;BME280;19511;42.682;23.332;2022-09-17T05:35:26;94312.88;;;16.95;100.00
33155;BME280;19511;42.682;23.332;2022-09-17T05:37:56;94306.22;;;16.83;100.00
33155;BME280;19511;42.682;23.332;2022-09-17T05:40:22;94314.63;;;16.83;100.00
33155;BME280;19511;42.682;23.332;2022-09-17T05:42:47;94299.03;;;16.67;100.00
33155;BME280;19511;42.682;23.332;2022-09-17T05:45:13;94333.84;;;16.90;100.00
33155;BME280;19511;42.682;23.332;2022-09-17T05:47:38;94334.00;;;16.87;100.00
33155;BME280;19511;42.682;23.332;2022-09-17T05:50:04;94338.19;;;16.82;100.00
33155;BME280;19511;42.682;23.332;2022-09-17T05:52:29;94332.16;;;16.93;100.00
33155;BME280;19511;42.682;23.332;2022-09-17T05:54:55;94329.78;;;17.01;100.00
33155;BME280;19511;42.682;23.332;2022-09-17T05:57:20;94329.19;;;16.96;100.00
33155;BME280;19511;42.682;23.332;2022-09-17T05:59:46;94322.31;;;16.97;100.00
33155;BME280;19511;42.682;23.332;2022-09-17T06:02:12;94337.03;;;17.07;100.00
33155;BME280;19511;42.682;23.332;2022-09-17T06:04:38;94321.72;;;17.03;100.00
33155;BME280;19511;42.682;23.332;2022-09-17T06:07:04;94316.97;;;17.18;100.00
33155;BME280;19511;42.682;23.332;2022-09-17T06:09:34;94321.94;;;17.14;100.00
33155;BME280;19511;42.682;23.332;2022-09-17T06:12:00;94278.94;;;16.78;100.00
33155;BME280;19511;42.682;23.332;2022-09-17T06:14:26;94346.25;;;17.23;100.00
33155;BME280;19511;42.682;23.332;2022-09-17T06:16:51;94357.00;;;17.24;100.00
33155;BME280;19511;42.682;23.332;2022-09-17T06:19:16;94376.56;;;17.24;100.00
33155;BME280;19511;42.682;23.332;2022-09-17T06:21:42;94323.78;;;16.84;100.00
33155;BME280;19511;42.682;23.332;2022-09-17T06:24:09;94391.59;;;17.27;100.00
33155;BME280;19511;42.682;23.332;2022-09-17T06:26:34;94394.38;;;17.27;100.00
33155;BME280;19511;42.682;23.332;2022-09-17T06:29:00;94342.06;;;16.85;100.00
33155;BME280;19511;42.682;23.332;2022-09-17T06:31:28;94410.09;;;17.24;100.00
33155;BME280;19511;42.682;23.332;2022-09-17T06:33:55;94430.25;;;17.28;100.00
33155;BME280;19511;42.682;23.332;2022-09-17T06:36:21;94421.22;;;17.34;100.00
33155;BME280;19511;42.682;23.332;2022-09-17T06:38:46;94433.31;;;17.30;100.00
33155;BME280;19511;42.682;23.332;2022-09-17T06:41:12;94427.22;;;17.41;100.00
33155;BME280;19511;42.682;23.332;2022-09-17T06:43:39;94372.84;;;17.18;100.00
33155;BME280;19511;42.682;23.332;2022-09-17T06:46:05;94404.38;;;17.52;100.00
33155;BME280;19511;42.682;23.332;2022-09-17T06:48:34;94391.63;;;17.51;100.00
33155;BME280;19511;42.682;23.332;2022-09-17T06:51:05;94366.75;;;17.53;100.00
33155;BME280;19511;42.682;23.332;2022-09-17T06:53:31;94385.31;;;17.66;100.00
33155;BME280;19511;42.682;23.332;2022-09-17T06:55:58;94386.63;;;17.55;100.00
33155;BME280;19511;42.682;23.332;2022-09-17T06:58:24;94386.78;;;17.52;100.00
33155;BME280;19511;42.682;23.332;2022-09-17T07:00:50;94315.06;;;17.24;100.00
33155;BME280;19511;42.682;23.332;2022-09-17T07:03:15;94324.63;;;17.33;100.00
33155;BME280;19511;42.682;23.332;2022-09-17T07:05:43;94349.44;;;17.64;100.00
33155;BME280;19511;42.682;23.332;2022-09-17T07:08:09;94367.47;;;17.63;100.00
33155;BME280;19511;42.682;23.332;2022-09-17T07:10:35;94294.19;;;17.35;100.00
33155;BME280;19511;42.682;23.332;2022-09-17T07:13:01;94329.97;;;17.70;100.00
33155;BME280;19511;42.682;23.332;2022-09-17T07:15:26;94329.31;;;17.75;100.00
33155;BME280;19511;42.682;23.332;2022-09-17T07:17:51;94317.03;;;17.97;100.00
33155;BME280;19511;42.682;23.332;2022-09-17T07:20:17;94296.16;;;18.07;100.00
33155;BME280;19511;42.682;23.332;2022-09-17T07:22:43;94281.75;;;17.99;100.00
33155;BME280;19511;42.682;23.332;2022-09-17T07:25:09;94291.69;;;18.15;100.00
33155;BME280;19511;42.682;23.332;2022-09-17T07:27:35;94291.59;;;18.24;100.00
33155;BME280;19511;42.682;23.332;2022-09-17T07:30:00;94291.72;;;18.45;100.00
33155;BME280;19511;42.682;23.332;2022-09-17T07:32:29;94254.47;;;18.24;100.00
33155;BME280;19511;42.682;23.332;2022-09-17T07:34:55;94300.50;;;18.68;100.00
33155;BME280;19511;42.682;23.332;2022-09-17T07:37:20;94287.25;;;18.68;100.00
33155;BME280;19511;42.682;23.332;2022-09-17T07:39:45;94291.59;;;18.69;100.00
33155;BME280;19511;42.682;23.332;2022-09-17T07:42:11;94289.16;;;18.77;100.00
33155;BME280;19511;42.682;23.332;2022-09-17T07:44:36;94290.91;;;18.74;100.00
33155;BME280;19511;42.682;23.332;2022-09-17T07:47:03;94282.78;;;18.91;100.00
33155;BME280;19511;42.682;23.332;2022-09-17T07:49:28;94283.03;;;19.08;100.00
33155;BME280;19511;42.682;23.332;2022-09-17T07:51:53;94289.88;;;19.22;100.00
33155;BME280;19511;42.682;23.332;2022-09-17T07:54:19;94291.88;;;19.42;100.00
33155;BME280;19511;42.682;23.332;2022-09-17T07:56:45;94273.47;;;19.56;100.00
33155;BME280;19511;42.682;23.332;2022-09-17T07:59:11;94281.31;;;19.52;100.00
33155;BME280;19511;42.682;23.332;2022-09-17T08:01:36;94270.66;;;19.77;100.00
33155;BME280;19511;42.682;23.332;2022-09-17T08:04:02;94252.81;;;19.80;100.00
33155;BME280;19511;42.682;23.332;2022-09-17T08:06:28;94241.56;;;19.74;100.00
33155;BME280;19511;42.682;23.332;2022-09-17T08:08:55;94262.78;;;20.02;100.00
33155;BME280;19511;42.682;23.332;2022-09-17T08:11:23;94258.50;;;20.06;100.00
33155;BME280;19511;42.682;23.332;2022-09-17T08:13:51;94214.63;;;19.83;100.00
33155;BME280;19511;42.682;23.332;2022-09-17T08:16:17;94240.81;;;20.00;100.00
33155;BME280;19511;42.682;23.332;2022-09-17T08:18:43;94238.56;;;20.31;100.00
33155;BME280;19511;42.682;23.332;2022-09-17T08:21:11;94246.13;;;20.51;100.00
33155;BME280;19511;42.682;23.332;2022-09-17T08:23:38;94242.81;;;20.52;100.00
33155;BME280;19511;42.682;23.332;2022-09-17T08:26:05;94228.16;;;20.37;100.00
33155;BME280;19511;42.682;23.332;2022-09-17T08:28:33;94229.59;;;20.59;100.00
33155;BME280;19511;42.682;23.332;2022-09-17T08:31:07;94171.78;;;20.46;100.00
33155;BME280;19511;42.682;23.332;2022-09-17T08:33:38;94221.22;;;21.02;100.00
33155;BME280;19511;42.682;23.332;2022-09-17T08:36:05;94216.13;;;21.06;100.00
33155;BME280;19511;42.682;23.332;2022-09-17T08:38:32;94223.41;;;21.30;100.00
33155;BME280;19511;42.682;23.332;2022-09-17T08:46:10;94216.75;;;21.33;100.00
33155;BME280;19511;42.682;23.332;2022-09-17T08:48:46;94224.94;;;21.31;100.00
33155;BME280;19511;42.682;23.332;2022-09-17T08:54:09;94214.13;;;21.12;100.00
33155;BME280;19511;42.682;23.332;2022-09-17T08:56:41;94219.53;;;21.21;100.00
33155;BME280;19511;42.682;23.332;2022-09-17T09:07:23;94224.09;;;21.19;100.00
33155;BME280;19511;42.682;23.332;2022-09-17T09:12:45;94228.56;;;21.37;100.00
33155;BME280;19511;42.682;23.332;2022-09-17T09:17:49;94254.69;;;20.68;100.00
33155;BME280;19511;42.682;23.332;2022-09-17T09:22:50;94256.56;;;20.50;100.00
33155;BME280;19511;42.682;23.332;2022-09-17T09:30:27;94295.97;;;20.30;100.00
33155;BME280;19511;42.682;23.332;2022-09-17T09:32:59;94301.84;;;20.05;100.00
33155;BME280;19511;42.682;23.332;2022-09-17T09:35:30;94300.13;;;19.87;100.00
33155;BME280;19511;42.682;23.332;2022-09-17T09:38:13;94296.31;;;19.70;100.00
33155;BME280;19511;42.682;23.332;2022-09-17T09:41:05;94318.47;;;19.68;100.00
33155;BME280;19511;42.682;23.332;2022-09-17T09:43:42;94327.59;;;19.63;100.00
33155;BME280;19511;42.682;23.332;2022-09-17T09:49:19;94337.56;;;19.43;100.00
33155;BME280;19511;42.682;23.332;2022-09-17T09:57:46;94351.53;;;19.22;100.00
33155;BME280;19511;42.682;23.332;2022-09-17T10:00:23;94362.75;;;19.22;100.00
33155;BME280;19511;42.682;23.332;2022-09-17T10:02:55;94314.56;;;19.03;100.00
33155;BME280;19511;42.682;23.332;2022-09-17T10:05:22;94306.44;;;18.90;100.00
33155;BME280;19511;42.682;23.332;2022-09-17T10:07:48;94305.00;;;18.80;100.00
33155;BME280;19511;42.682;23.332;2022-09-17T10:10:13;94262.41;;;18.76;100.00
33155;BME280;19511;42.682;23.332;2022-09-17T10:12:39;94258.88;;;18.60;100.00
33155;BME280;19511;42.682;23.332;2022-09-17T10:15:26;94256.38;;;18.48;100.00
33155;BME280;19511;42.682;23.332;2022-09-17T10:18:22;94243.94;;;18.49;100.00
33155;BME280;19511;42.682;23.332;2022-09-17T10:23:21;94164.81;;;17.88;100.00
33155;BME280;19511;42.682;23.332;2022-09-17T10:25:47;94209.28;;;18.16;100.00
33155;BME280;19511;42.682;23.332;2022-09-17T10:30:59;94179.47;;;17.83;100.00
33155;BME280;19511;42.682;23.332;2022-09-17T10:33:28;94196.94;;;18.08;100.00
33155;BME280;19511;42.682;23.332;2022-09-17T10:36:11;94191.34;;;17.93;100.00
33155;BME280;19511;42.682;23.332;2022-09-17T10:38:39;94219.31;;;18.08;100.00
33155;BME280;19511;42.682;23.332;2022-09-17T10:41:25;94235.16;;;18.26;100.00
33155;BME280;19511;42.682;23.332;2022-09-17T10:43:51;94209.66;;;18.39;100.00
33155;BME280;19511;42.682;23.332;2022-09-17T10:46:29;94203.31;;;18.23;100.00
33155;BME280;19511;42.682;23.332;2022-09-17T10:51:33;94167.19;;;18.25;100.00
33155;BME280;19511;42.682;23.332;2022-09-17T10:54:48;94192.38;;;18.25;100.00
33155;BME280;19511;42.682;23.332;2022-09-17T10:57:14;94170.00;;;18.25;100.00
33155;BME280;19511;42.682;23.332;2022-09-17T11:00:02;94179.75;;;18.30;100.00
33155;BME280;19511;42.682;23.332;2022-09-17T11:03:56;94171.25;;;18.24;100.00
33155;BME280;19511;42.682;23.332;2022-09-17T11:05:58;94188.63;;;18.28;100.00
33155;BME280;19511;42.682;23.332;2022-09-17T11:11:10;94206.75;;;18.48;100.00
33155;BME280;19511;42.682;23.332;2022-09-17T11:18:44;94202.81;;;18.75;100.00
33155;BME280;19511;42.682;23.332;2022-09-17T11:35:11;94208.00;;;19.39;100.00
33155;BME280;19511;42.682;23.332;2022-09-17T11:37:49;94206.13;;;19.30;100.00
33155;BME280;19511;42.682;23.332;2022-09-17T11:43:13;94176.31;;;18.91;100.00
33155;BME280;19511;42.682;23.332;2022-09-17T11:45:54;94187.41;;;19.01;100.00
33155;BME280;19511;42.682;23.332;2022-09-17T11:48:28;94203.75;;;18.87;100.00
33155;BME280;19511;42.682;23.332;2022-09-17T11:51:05;94187.81;;;18.93;100.00
33155;BME280;19511;42.682;23.332;2022-09-17T11:53:46;94180.97;;;18.95;100.00
33155;BME280;19511;42.682;23.332;2022-09-17T11:56:19;94171.50;;;18.92;100.00
33155;BME280;19511;42.682;23.332;2022-09-17T11:59:13;94166.81;;;18.89;100.00
33155;BME280;19511;42.682;23.332;2022-09-17T12:01:51;94182.75;;;18.98;100.00
33155;BME280;19511;42.682;23.332;2022-09-17T12:06:58;94134.25;;;18.71;100.00
33155;BME280;19511;42.682;23.332;2022-09-17T12:09:28;94172.81;;;18.97;100.00
33155;BME280;19511;42.682;23.332;2022-09-17T12:17:03;94176.31;;;18.91;100.00
33155;BME280;19511;42.682;23.332;2022-09-17T12:19:34;94167.22;;;18.97;100.00
33155;BME280;19511;42.682;23.332;2022-09-17T12:24:51;94175.50;;;19.06;100.00
33155;BME280;19511;42.682;23.332;2022-09-17T12:51:41;94128.81;;;18.82;100.00
33155;BME280;19511;42.682;23.332;2022-09-17T12:54:40;94144.28;;;18.77;100.00
33155;BME280;19511;42.682;23.332;2022-09-17T12:58:06;94151.06;;;18.71;100.00
33155;BME280;19511;42.682;23.332;2022-09-17T13:00:12;94100.75;;;18.41;100.00
33155;BME280;19511;42.682;23.332;2022-09-17T13:03:14;94120.41;;;18.62;100.00
33155;BME280;19511;42.682;23.332;2022-09-17T13:05:52;94117.31;;;18.59;100.00
33155;BME280;19511;42.682;23.332;2022-09-17T13:19:36;94137.59;;;18.54;100.00
33155;BME280;19511;42.682;23.332;2022-09-17T13:22:08;94132.34;;;18.62;100.00
33155;BME280;19511;42.682;23.332;2022-09-17T13:24:37;94127.81;;;18.65;100.00
33155;BME280;19511;42.682;23.332;2022-09-17T13:27:05;94123.88;;;18.56;100.00
33155;BME280;19511;42.682;23.332;2022-09-17T13:38:05;94090.63;;;18.64;100.00
33155;BME280;19511;42.682;23.332;2022-09-17T13:40:34;94074.44;;;18.53;100.00
33155;BME280;19511;42.682;23.332;2022-09-17T13:45:30;94066.00;;;18.48;100.00
33155;BME280;19511;42.682;23.332;2022-09-17T13:50:33;94053.03;;;18.50;100.00
33155;BME280;19511;42.682;23.332;2022-09-17T13:53:20;94033.94;;;18.49;100.00
33155;BME280;19511;42.682;23.332;2022-09-17T13:55:54;94026.16;;;18.38;100.00
33155;BME280;19511;42.682;23.332;2022-09-17T13:58:25;94018.00;;;18.19;100.00
33155;BME280;19511;42.682;23.332;2022-09-17T14:01:04;94022.66;;;18.22;100.00
33155;BME280;19511;42.682;23.332;2022-09-17T14:24:59;94031.59;;;18.06;100.00
33155;BME280;19511;42.682;23.332;2022-09-17T14:32:40;94026.59;;;17.95;100.00
33155;BME280;19511;42.682;23.332;2022-09-17T14:35:47;94002.00;;;17.84;100.00
33155;BME280;19511;42.682;23.332;2022-09-17T14:38:33;94006.81;;;17.84;100.00
33155;BME280;19511;42.682;23.332;2022-09-17T14:43:53;93938.63;;;17.81;100.00
33155;BME280;19511;42.682;23.332;2022-09-17T14:46:23;93922.00;;;17.72;100.00
33155;BME280;19511;42.682;23.332;2022-09-17T14:48:49;93997.84;;;17.79;100.00
33155;BME280;19511;42.682;23.332;2022-09-17T14:53:48;93996.91;;;17.83;100.00
33155;BME280;19511;42.682;23.332;2022-09-17T14:56:16;93978.56;;;17.82;100.00
33155;BME280;19511;42.682;23.332;2022-09-17T14:58:53;93977.22;;;17.77;100.00
33155;BME280;19511;42.682;23.332;2022-09-17T15:01:29;93980.31;;;17.79;100.00
33155;BME280;19511;42.682;23.332;2022-09-17T15:06:36;93981.47;;;17.72;100.00
33155;BME280;19511;42.682;23.332;2022-09-17T15:09:02;93956.53;;;17.69;100.00
33155;BME280;19511;42.682;23.332;2022-09-17T15:11:29;93942.16;;;17.61;100.00
33155;BME280;19511;42.682;23.332;2022-09-17T15:13:56;93946.16;;;17.54;100.00
33155;BME280;19511;42.682;23.332;2022-09-17T15:16:28;93951.56;;;17.43;100.00
33155;BME280;19511;42.682;23.332;2022-09-17T15:19:00;93944.72;;;17.44;100.00
33155;BME280;19511;42.682;23.332;2022-09-17T15:27:08;93931.03;;;17.46;100.00
33155;BME280;19511;42.682;23.332;2022-09-17T15:29:37;93930.28;;;17.30;100.00
33155;BME280;19511;42.682;23.332;2022-09-17T15:32:04;93885.16;;;17.02;100.00
33155;BME280;19511;42.682;23.332;2022-09-17T15:34:31;93934.91;;;17.34;100.00
33155;BME280;19511;42.682;23.332;2022-09-17T15:37:25;93927.19;;;17.43;100.00
33155;BME280;19511;42.682;23.332;2022-09-17T15:39:54;93895.44;;;17.11;100.00
33155;BME280;19511;42.682;23.332;2022-09-17T15:44:46;93934.22;;;17.39;100.00
33155;BME280;19511;42.682;23.332;2022-09-17T15:50:20;93932.63;;;17.32;100.00
33155;BME280;19511;42.682;23.332;2022-09-17T15:52:46;93940.50;;;17.34;100.00
33155;BME280;19511;42.682;23.332;2022-09-17T15:55:32;93952.41;;;17.49;100.00
33155;BME280;19511;42.682;23.332;2022-09-17T15:58:00;93934.22;;;17.39;100.00
33155;BME280;19511;42.682;23.332;2022-09-17T16:00:26;93883.72;;;17.07;100.00
33155;BME280;19511;42.682;23.332;2022-09-17T16:02:53;93939.09;;;17.59;100.00
33155;BME280;19511;42.682;23.332;2022-09-17T16:05:42;93912.03;;;17.50;100.00
33155;BME280;19511;42.682;23.332;2022-09-17T16:08:16;93901.81;;;17.47;100.00
33155;BME280;19511;42.682;23.332;2022-09-17T16:10:43;93896.38;;;17.58;100.00
33155;BME280;19511;42.682;23.332;2022-09-17T16:13:08;93906.16;;;17.48;100.00
33155;BME280;19511;42.682;23.332;2022-09-17T16:15:34;93885.72;;;17.42;100.00
33155;BME280;19511;42.682;23.332;2022-09-17T16:17:59;93891.25;;;17.36;100.00
33155;BME280;19511;42.682;23.332;2022-09-17T16:20:25;93918.03;;;17.43;100.00
33155;BME280;19511;42.682;23.332;2022-09-17T16:22:51;93863.00;;;17.34;100.00
33155;BME280;19511;42.682;23.332;2022-09-17T16:25:26;93912.94;;;17.62;100.00
33155;BME280;19511;42.682;23.332;2022-09-17T16:28:27;93895.56;;;17.52;100.00
33155;BME280;19511;42.682;23.332;2022-09-17T16:30:47;93893.56;;;17.38;100.00
33155;BME280;19511;42.682;23.332;2022-09-17T16:33:14;93813.44;;;17.14;100.00
33155;BME280;19511;42.682;23.332;2022-09-17T16:35:41;93893.22;;;17.51;100.00
33155;BME280;19511;42.682;23.332;2022-09-17T16:38:07;93884.38;;;17.52;100.00